Wedderburn, OR (97491)

4:14 PM PST on March 03, 2015 (GMT -0800)
MesoWest Gold Beach OR US MFRWFO | Change Station
CLOSE
Current Station
Personal Weather Station
Location: Gold Beach, OR
Elevation: 16 ft
Nearby Weather Stations

Elev 16 ft 42.41 °N, 124.42 °W | Updated 55 minutes ago

Clear
Clear
54 °F
Feels Like 54 °F
N
18
Wind Variable Wind from North
Gusts 29.0 mph

Today
High -- | Low -- °F
--% Chance of Precip.
Yesterday
High -- | Low -- °F
Precip. -- in
6:50 AM 6:09 PM
Waxing Gibbous, 97% visible
Pressure 30.05 in
Visibility 9.0 miles
Clouds Clear
Dew Point 39 °F
Humidity 58%
Rainfall -999.00 in
Snow Depth Not available.
UV 2 out of 12
Pollen 5.30 out of 12
Air Quality Not available.
Flu Activity Not available.
METAR KBOK 032356Z AUTO 34010KT 9SM CLR 14/04 A3004 RMK AO2 56015 T01440038 10150 20122 SLP175

More Conditions Fewer Conditions

Pressure 30.05 in
Visibility 9.0 miles
Clouds Clear
Dew Point 39 °F
Humidity 58%
Rainfall -999.00 in
Snow Depth Not available.
UV 2 out of 12
Pollen 5.30 out of 12
Air Quality Not available.
Flu Activity Not available.
METAR KBOK 032356Z AUTO 34010KT 9SM CLR 14/04 A3004 RMK AO2 56015 T01440038 10150 20122 SLP175

More Conditions Fewer Conditions

10-Day Weather Forecast

Almanac

Astronomy

Mar. 03, 2015 Rise Set
Actual Time
Civil Twilight
Nautical Twilight
Astronomical Twilight
Moon
Length of Visible Light
Length of Day
Tomorrow will be .
, % of the Moon is Illuminated

Today's Extremes

State Highs State Lows

Community

WunderPhotos

Upload Photos

1,802,330 photos uploaded!

WunderBlogs® & News

Nearby

Air Quality

  Air Quality AQ Index Pollutant
Not available.

Snow Depth

Station Depth Elevation

Earthquake Activity

City Distance Mag. Time & Date
Minimum magnitude displayed is 2.5.

Coastal Water Temperatures

Place Temperature

Nearby Weather Stations